sensor_id;sensor_type;location;lat;lon;timestamp;pressure;altitude;pressure_sealevel;temperature;humidity
5053;BME280;2545;50.892;5.740;2023-07-29T00:02:09;56331.72;;;-142.21;100.00
5053;BME280;2545;50.892;5.740;2023-07-29T00:04:35;56319.94;;;-142.21;100.00
5053;BME280;2545;50.892;5.740;2023-07-29T00:07:00;56302.28;;;-142.21;100.00
5053;BME280;2545;50.892;5.740;2023-07-29T00:09:26;56310.13;;;-142.21;100.00
5053;BME280;2545;50.892;5.740;2023-07-29T00:11:51;56343.47;;;-142.21;100.00
5053;BME280;2545;50.892;5.740;2023-07-29T00:14:16;56335.63;;;-142.21;100.00
5053;BME280;2545;50.892;5.740;2023-07-29T00:16:42;56300.34;;;-142.21;100.00
5053;BME280;2545;50.892;5.740;2023-07-29T00:19:08;56321.91;;;-142.21;100.00
5053;BME280;2545;50.892;5.740;2023-07-29T00:21:33;56310.13;;;-142.21;100.00
5053;BME280;2545;50.892;5.740;2023-07-29T00:23:58;56298.38;;;-142.21;100.00
5053;BME280;2545;50.892;5.740;2023-07-29T00:26:26;56345.44;;;-142.21;100.00
5053;BME280;2545;50.892;5.740;2023-07-29T00:28:54;56294.47;;;-142.21;100.00
5053;BME280;2545;50.892;5.740;2023-07-29T00:31:19;56310.13;;;-142.21;100.00
5053;BME280;2545;50.892;5.740;2023-07-29T00:33:45;117381.44;;;-142.21;100.00
5053;BME280;2545;50.892;5.740;2023-07-29T00:36:10;117381.44;;;-142.21;100.00
5053;BME280;2545;50.892;5.740;2023-07-29T00:38:35;117381.44;;;-142.21;100.00
5053;BME280;2545;50.892;5.740;2023-07-29T00:41:02;117381.44;;;-142.21;100.00
5053;BME280;2545;50.892;5.740;2023-07-29T00:43:28;117381.44;;;-142.21;100.00
5053;BME280;2545;50.892;5.740;2023-07-29T00:45:54;117381.44;;;-142.21;100.00
5053;BME280;2545;50.892;5.740;2023-07-29T00:48:20;117381.44;;;-142.21;100.00
5053;BME280;2545;50.892;5.740;2023-07-29T00:50:45;117381.44;;;-142.21;100.00
5053;BME280;2545;50.892;5.740;2023-07-29T00:53:11;117381.44;;;-142.21;100.00
5053;BME280;2545;50.892;5.740;2023-07-29T00:55:37;117381.44;;;-142.21;100.00
5053;BME280;2545;50.892;5.740;2023-07-29T00:58:03;117381.44;;;-142.21;100.00
5053;BME280;2545;50.892;5.740;2023-07-29T01:00:28;117381.44;;;-142.21;100.00
5053;BME280;2545;50.892;5.740;2023-07-29T01:02:53;117381.44;;;-142.21;100.00
5053;BME280;2545;50.892;5.740;2023-07-29T01:05:20;117381.44;;;-142.21;100.00
5053;BME280;2545;50.892;5.740;2023-07-29T01:07:59;117381.44;;;-142.21;100.00
5053;BME280;2545;50.892;5.740;2023-07-29T01:15:44;117381.44;;;-142.21;100.00
5053;BME280;2545;50.892;5.740;2023-07-29T01:18:21;117381.44;;;-142.21;100.00
5053;BME280;2545;50.892;5.740;2023-07-29T01:20:47;117381.44;;;-142.21;100.00
5053;BME280;2545;50.892;5.740;2023-07-29T01:23:13;117381.44;;;-142.21;100.00
5053;BME280;2545;50.892;5.740;2023-07-29T01:25:40;117381.44;;;-142.21;100.00
5053;BME280;2545;50.892;5.740;2023-07-29T01:28:06;117381.44;;;-142.21;100.00
5053;BME280;2545;50.892;5.740;2023-07-29T01:30:38;117381.44;;;-142.21;100.00
5053;BME280;2545;50.892;5.740;2023-07-29T01:33:05;117381.44;;;-142.21;100.00
5053;BME280;2545;50.892;5.740;2023-07-29T01:35:57;117381.44;;;-142.21;100.00
5053;BME280;2545;50.892;5.740;2023-07-29T01:38:28;117381.44;;;-142.21;100.00
5053;BME280;2545;50.892;5.740;2023-07-29T01:40:58;117381.44;;;-142.21;100.00
5053;BME280;2545;50.892;5.740;2023-07-29T01:43:26;117381.44;;;-142.21;100.00
5053;BME280;2545;50.892;5.740;2023-07-29T01:45:52;117381.44;;;-142.21;100.00
5053;BME280;2545;50.892;5.740;2023-07-29T01:48:17;117381.44;;;-142.21;100.00
5053;BME280;2545;50.892;5.740;2023-07-29T01:50:42;117381.44;;;-142.21;100.00
5053;BME280;2545;50.892;5.740;2023-07-29T01:53:08;117381.44;;;-142.21;100.00
5053;BME280;2545;50.892;5.740;2023-07-29T01:55:33;117381.44;;;-142.21;100.00
5053;BME280;2545;50.892;5.740;2023-07-29T01:57:59;117381.44;;;-142.21;100.00
5053;BME280;2545;50.892;5.740;2023-07-29T02:00:24;117381.44;;;-142.21;100.00
5053;BME280;2545;50.892;5.740;2023-07-29T02:02:49;117381.44;;;-142.21;100.00
5053;BME280;2545;50.892;5.740;2023-07-29T02:05:15;117381.44;;;-142.21;100.00
5053;BME280;2545;50.892;5.740;2023-07-29T02:07:40;117381.44;;;-142.21;100.00
5053;BME280;2545;50.892;5.740;2023-07-29T02:10:06;117381.44;;;-142.21;100.00
5053;BME280;2545;50.892;5.740;2023-07-29T02:12:31;117381.44;;;-142.21;100.00
5053;BME280;2545;50.892;5.740;2023-07-29T02:14:57;117381.44;;;-142.21;100.00
5053;BME280;2545;50.892;5.740;2023-07-29T02:17:22;117381.44;;;-142.21;100.00
5053;BME280;2545;50.892;5.740;2023-07-29T02:19:47;117381.44;;;-142.21;100.00
5053;BME280;2545;50.892;5.740;2023-07-29T02:22:14;117381.44;;;-142.21;100.00
5053;BME280;2545;50.892;5.740;2023-07-29T02:24:40;117381.44;;;-142.21;100.00
5053;BME280;2545;50.892;5.740;2023-07-29T02:27:06;117381.44;;;-142.21;100.00
5053;BME280;2545;50.892;5.740;2023-07-29T02:29:31;117381.44;;;-142.21;100.00
5053;BME280;2545;50.892;5.740;2023-07-29T02:31:58;117381.44;;;-142.21;100.00
5053;BME280;2545;50.892;5.740;2023-07-29T02:34:23;117381.44;;;-142.21;100.00
5053;BME280;2545;50.892;5.740;2023-07-29T02:36:49;117381.44;;;-142.21;100.00
5053;BME280;2545;50.892;5.740;2023-07-29T02:39:14;117381.44;;;-142.21;100.00
5053;BME280;2545;50.892;5.740;2023-07-29T02:41:39;117381.44;;;-142.21;100.00
5053;BME280;2545;50.892;5.740;2023-07-29T02:44:05;117381.44;;;-142.21;100.00
5053;BME280;2545;50.892;5.740;2023-07-29T02:46:30;117381.44;;;-142.21;100.00
5053;BME280;2545;50.892;5.740;2023-07-29T02:48:56;117381.44;;;-142.21;100.00
5053;BME280;2545;50.892;5.740;2023-07-29T02:51:21;117381.44;;;-142.21;100.00
5053;BME280;2545;50.892;5.740;2023-07-29T02:53:47;117381.44;;;-142.21;100.00
5053;BME280;2545;50.892;5.740;2023-07-29T02:56:12;117381.44;;;-142.21;100.00
5053;BME280;2545;50.892;5.740;2023-07-29T02:58:37;117381.44;;;-142.21;100.00
5053;BME280;2545;50.892;5.740;2023-07-29T03:01:04;117381.44;;;-142.21;100.00
5053;BME280;2545;50.892;5.740;2023-07-29T03:03:31;117381.44;;;-142.21;100.00
5053;BME280;2545;50.892;5.740;2023-07-29T03:06:00;117381.44;;;-142.21;100.00
5053;BME280;2545;50.892;5.740;2023-07-29T03:08:26;117381.44;;;-142.21;100.00
5053;BME280;2545;50.892;5.740;2023-07-29T03:10:51;117381.44;;;-142.21;100.00
5053;BME280;2545;50.892;5.740;2023-07-29T03:13:17;117381.44;;;-142.21;100.00
5053;BME280;2545;50.892;5.740;2023-07-29T03:15:42;117381.44;;;-142.21;100.00
5053;BME280;2545;50.892;5.740;2023-07-29T03:18:07;117381.44;;;-142.21;100.00
5053;BME280;2545;50.892;5.740;2023-07-29T03:20:33;117381.44;;;-142.21;100.00
5053;BME280;2545;50.892;5.740;2023-07-29T03:22:58;117381.44;;;-142.21;100.00
5053;BME280;2545;50.892;5.740;2023-07-29T03:25:23;117381.44;;;-142.21;100.00
5053;BME280;2545;50.892;5.740;2023-07-29T03:27:49;117381.44;;;-142.21;100.00
5053;BME280;2545;50.892;5.740;2023-07-29T03:30:14;117381.44;;;-142.21;100.00
5053;BME280;2545;50.892;5.740;2023-07-29T03:32:43;117381.44;;;-142.21;100.00
5053;BME280;2545;50.892;5.740;2023-07-29T03:35:12;117381.44;;;-142.21;100.00
5053;BME280;2545;50.892;5.740;2023-07-29T03:37:37;117381.44;;;-142.21;100.00
5053;BME280;2545;50.892;5.740;2023-07-29T03:40:03;117381.44;;;-142.21;100.00
5053;BME280;2545;50.892;5.740;2023-07-29T03:42:29;117381.44;;;-142.21;100.00
5053;BME280;2545;50.892;5.740;2023-07-29T03:44:54;117381.44;;;-142.21;100.00
5053;BME280;2545;50.892;5.740;2023-07-29T03:47:20;117381.44;;;-142.21;100.00
5053;BME280;2545;50.892;5.740;2023-07-29T03:49:45;117381.44;;;-142.21;100.00
5053;BME280;2545;50.892;5.740;2023-07-29T03:52:10;117381.44;;;-142.21;100.00
5053;BME280;2545;50.892;5.740;2023-07-29T03:54:36;117381.44;;;-142.21;100.00
5053;BME280;2545;50.892;5.740;2023-07-29T03:57:01;117381.44;;;-142.21;100.00
5053;BME280;2545;50.892;5.740;2023-07-29T03:59:27;6001.81;;;-142.21;100.00
5053;BME280;2545;50.892;5.740;2023-07-29T04:01:52;56223.84;;;-142.21;100.00
5053;BME280;2545;50.892;5.740;2023-07-29T04:04:17;56249.34;;;-142.21;100.00
5053;BME280;2545;50.892;5.740;2023-07-29T04:06:43;56247.38;;;-142.21;100.00
5053;BME280;2545;50.892;5.740;2023-07-29T04:09:08;56257.19;;;-142.21;100.00
5053;BME280;2545;50.892;5.740;2023-07-29T04:11:34;56257.19;;;-142.21;100.00
5053;BME280;2545;50.892;5.740;2023-07-29T04:13:59;56219.94;;;-142.21;100.00
5053;BME280;2545;50.892;5.740;2023-07-29T04:16:25;56214.06;;;-142.21;100.00
5053;BME280;2545;50.892;5.740;2023-07-29T04:18:50;56229.75;;;-142.21;100.00
5053;BME280;2545;50.892;5.740;2023-07-29T04:21:15;56249.34;;;-142.21;100.00
5053;BME280;2545;50.892;5.740;2023-07-29T04:23:41;56267.00;;;-142.21;100.00
5053;BME280;2545;50.892;5.740;2023-07-29T04:26:06;56253.28;;;-142.21;100.00
5053;BME280;2545;50.892;5.740;2023-07-29T04:28:32;56251.31;;;-142.21;100.00
5053;BME280;2545;50.892;5.740;2023-07-29T04:30:57;56276.81;;;-142.21;100.00
5053;BME280;2545;50.892;5.740;2023-07-29T04:33:22;56253.28;;;-142.21;100.00
5053;BME280;2545;50.892;5.740;2023-07-29T04:35:48;56237.59;;;-142.21;100.00
5053;BME280;2545;50.892;5.740;2023-07-29T04:38:13;56276.81;;;-142.21;100.00
5053;BME280;2545;50.892;5.740;2023-07-29T04:40:38;56257.19;;;-142.21;100.00
5053;BME280;2545;50.892;5.740;2023-07-29T04:43:04;56292.50;;;-142.21;100.00
5053;BME280;2545;50.892;5.740;2023-07-29T04:45:29;56270.91;;;-142.21;100.00
5053;BME280;2545;50.892;5.740;2023-07-29T04:47:55;56239.56;;;-142.21;100.00
5053;BME280;2545;50.892;5.740;2023-07-29T04:50:21;56259.16;;;-142.21;100.00
5053;BME280;2545;50.892;5.740;2023-07-29T04:52:46;56272.88;;;-142.21;100.00
5053;BME280;2545;50.892;5.740;2023-07-29T04:55:12;56239.56;;;-142.21;100.00
5053;BME280;2545;50.892;5.740;2023-07-29T04:57:37;56245.44;;;-142.21;100.00
5053;BME280;2545;50.892;5.740;2023-07-29T05:00:03;56227.78;;;-142.21;100.00
5053;BME280;2545;50.892;5.740;2023-07-29T05:02:28;56253.28;;;-142.21;100.00
5053;BME280;2545;50.892;5.740;2023-07-29T05:04:53;56296.41;;;-142.21;100.00
5053;BME280;2545;50.892;5.740;2023-07-29T05:07:19;56251.31;;;-142.21;100.00
5053;BME280;2545;50.892;5.740;2023-07-29T05:09:44;56253.28;;;-142.21;100.00
5053;BME280;2545;50.892;5.740;2023-07-29T05:12:09;56249.34;;;-142.21;100.00
5053;BME280;2545;50.892;5.740;2023-07-29T05:14:35;56243.47;;;-142.21;100.00
5053;BME280;2545;50.892;5.740;2023-07-29T05:17:00;56239.56;;;-142.21;100.00
5053;BME280;2545;50.892;5.740;2023-07-29T05:19:26;56274.84;;;-142.21;100.00
5053;BME280;2545;50.892;5.740;2023-07-29T05:21:51;56259.16;;;-142.21;100.00
5053;BME280;2545;50.892;5.740;2023-07-29T05:24:16;56270.91;;;-142.21;100.00
5053;BME280;2545;50.892;5.740;2023-07-29T05:26:42;56288.56;;;-142.21;100.00
5053;BME280;2545;50.892;5.740;2023-07-29T05:29:07;56276.81;;;-142.21;100.00
5053;BME280;2545;50.892;5.740;2023-07-29T05:31:32;56247.38;;;-142.21;100.00
5053;BME280;2545;50.892;5.740;2023-07-29T05:33:58;56217.97;;;-142.21;100.00
5053;BME280;2545;50.892;5.740;2023-07-29T05:36:24;56237.59;;;-142.21;100.00
5053;BME280;2545;50.892;5.740;2023-07-29T05:38:50;56239.56;;;-142.21;100.00
5053;BME280;2545;50.892;5.740;2023-07-29T05:41:16;56237.59;;;-142.21;100.00
5053;BME280;2545;50.892;5.740;2023-07-29T05:43:41;56206.22;;;-142.21;100.00
5053;BME280;2545;50.892;5.740;2023-07-29T05:46:08;56219.94;;;-142.21;100.00
5053;BME280;2545;50.892;5.740;2023-07-29T05:48:34;56241.50;;;-142.21;100.00
5053;BME280;2545;50.892;5.740;2023-07-29T05:50:59;56231.72;;;-142.21;100.00
5053;BME280;2545;50.892;5.740;2023-07-29T05:53:24;56253.28;;;-142.21;100.00
5053;BME280;2545;50.892;5.740;2023-07-29T05:55:50;56272.88;;;-142.21;100.00
5053;BME280;2545;50.892;5.740;2023-07-29T05:58:15;56233.66;;;-142.21;100.00
5053;BME280;2545;50.892;5.740;2023-07-29T06:00:41;56257.19;;;-142.21;100.00
5053;BME280;2545;50.892;5.740;2023-07-29T06:03:06;56259.16;;;-142.21;100.00
5053;BME280;2545;50.892;5.740;2023-07-29T06:05:31;56231.72;;;-142.21;100.00
5053;BME280;2545;50.892;5.740;2023-07-29T06:07:57;56227.78;;;-142.21;100.00
5053;BME280;2545;50.892;5.740;2023-07-29T06:10:22;56206.22;;;-142.21;100.00
5053;BME280;2545;50.892;5.740;2023-07-29T06:12:47;56210.13;;;-142.21;100.00
5053;BME280;2545;50.892;5.740;2023-07-29T06:15:13;56186.59;;;-142.21;100.00
5053;BME280;2545;50.892;5.740;2023-07-29T06:17:39;56225.81;;;-142.21;100.00
5053;BME280;2545;50.892;5.740;2023-07-29T06:20:05;56174.84;;;-142.21;100.00
5053;BME280;2545;50.892;5.740;2023-07-29T06:22:31;56223.84;;;-142.21;100.00
5053;BME280;2545;50.892;5.740;2023-07-29T06:24:56;56176.78;;;-142.21;100.00
5053;BME280;2545;50.892;5.740;2023-07-29T06:27:22;56198.38;;;-142.21;100.00
5053;BME280;2545;50.892;5.740;2023-07-29T06:29:47;56206.22;;;-142.21;100.00
5053;BME280;2545;50.892;5.740;2023-07-29T06:32:12;56190.53;;;-142.21;100.00
5053;BME280;2545;50.892;5.740;2023-07-29T06:34:38;56241.50;;;-142.21;100.00
5053;BME280;2545;50.892;5.740;2023-07-29T06:37:03;56198.38;;;-142.21;100.00
5053;BME280;2545;50.892;5.740;2023-07-29T06:39:28;56174.84;;;-142.21;100.00
5053;BME280;2545;50.892;5.740;2023-07-29T06:41:54;56176.78;;;-142.21;100.00
5053;BME280;2545;50.892;5.740;2023-07-29T06:44:19;56167.00;;;-142.21;100.00
5053;BME280;2545;50.892;5.740;2023-07-29T06:46:45;56212.09;;;-142.21;100.00
5053;BME280;2545;50.892;5.740;2023-07-29T06:49:10;56188.56;;;-142.21;100.00
5053;BME280;2545;50.892;5.740;2023-07-29T06:51:35;56202.28;;;-142.21;100.00
5053;BME280;2545;50.892;5.740;2023-07-29T06:54:02;56225.81;;;-142.21;100.00
5053;BME280;2545;50.892;5.740;2023-07-29T06:56:27;56167.00;;;-142.21;100.00
5053;BME280;2545;50.892;5.740;2023-07-29T06:58:52;56245.44;;;-142.21;100.00
5053;BME280;2545;50.892;5.740;2023-07-29T07:01:18;56184.66;;;-142.21;100.00
5053;BME280;2545;50.892;5.740;2023-07-29T07:03:43;56200.34;;;-142.21;100.00
5053;BME280;2545;50.892;5.740;2023-07-29T07:06:09;56188.56;;;-142.21;100.00
5053;BME280;2545;50.892;5.740;2023-07-29T07:08:34;56182.69;;;-142.21;100.00
5053;BME280;2545;50.892;5.740;2023-07-29T07:10:59;56167.00;;;-142.21;100.00
5053;BME280;2545;50.892;5.740;2023-07-29T07:13:25;56198.38;;;-142.21;100.00
5053;BME280;2545;50.892;5.740;2023-07-29T07:15:50;56163.06;;;-142.21;100.00
5053;BME280;2545;50.892;5.740;2023-07-29T07:18:16;56174.84;;;-142.21;95.92
5053;BME280;2545;50.892;5.740;2023-07-29T07:20:42;56180.72;;;-142.21;93.43
5053;BME280;2545;50.892;5.740;2023-07-29T07:23:07;56159.16;;;-142.21;94.80
5053;BME280;2545;50.892;5.740;2023-07-29T07:25:36;56176.78;;;-142.21;96.96
5053;BME280;2545;50.892;5.740;2023-07-29T07:28:02;56186.59;;;-142.21;96.84
5053;BME280;2545;50.892;5.740;2023-07-29T07:30:27;56165.03;;;-142.21;95.35
5053;BME280;2545;50.892;5.740;2023-07-29T07:32:52;56172.88;;;-142.21;91.01
5053;BME280;2545;50.892;5.740;2023-07-29T07:35:18;56133.66;;;-142.21;90.59
5053;BME280;2545;50.892;5.740;2023-07-29T07:37:44;56108.16;;;-142.21;91.11
5053;BME280;2545;50.892;5.740;2023-07-29T07:40:09;56159.16;;;-142.21;87.41
5053;BME280;2545;50.892;5.740;2023-07-29T07:42:35;56170.91;;;-142.21;87.71
5053;BME280;2545;50.892;5.740;2023-07-29T07:45:00;56184.66;;;-142.21;86.89
5053;BME280;2545;50.892;5.740;2023-07-29T07:47:25;56159.16;;;-142.21;86.70
5053;BME280;2545;50.892;5.740;2023-07-29T07:49:51;56147.38;;;-142.21;84.65
5053;BME280;2545;50.892;5.740;2023-07-29T07:52:16;56167.00;;;-142.21;83.98
5053;BME280;2545;50.892;5.740;2023-07-29T07:54:41;56163.06;;;-142.21;84.01
5053;BME280;2545;50.892;5.740;2023-07-29T07:57:07;56151.31;;;-142.21;84.49
5053;BME280;2545;50.892;5.740;2023-07-29T07:59:32;56143.47;;;-142.21;82.58
5053;BME280;2545;50.892;5.740;2023-07-29T08:01:57;56153.28;;;-142.21;83.07
5053;BME280;2545;50.892;5.740;2023-07-29T08:04:23;56159.16;;;-142.21;78.68
5053;BME280;2545;50.892;5.740;2023-07-29T08:06:48;56131.69;;;-142.21;80.70
5053;BME280;2545;50.892;5.740;2023-07-29T08:09:13;56184.66;;;-142.21;83.12
5053;BME280;2545;50.892;5.740;2023-07-29T08:11:40;56155.22;;;-142.21;81.07
5053;BME280;2545;50.892;5.740;2023-07-29T08:14:05;56161.13;;;-142.21;83.59
5053;BME280;2545;50.892;5.740;2023-07-29T08:16:31;56176.78;;;-142.21;82.34
5053;BME280;2545;50.892;5.740;2023-07-29T08:18:56;56170.91;;;-142.21;80.72
5053;BME280;2545;50.892;5.740;2023-07-29T08:21:21;56206.22;;;-142.21;79.59
5053;BME280;2545;50.892;5.740;2023-07-29T08:23:47;56143.47;;;-142.21;82.54
5053;BME280;2545;50.892;5.740;2023-07-29T08:26:12;56119.94;;;-142.21;82.97
5053;BME280;2545;50.892;5.740;2023-07-29T08:28:39;56186.59;;;-142.21;83.41
5053;BME280;2545;50.892;5.740;2023-07-29T08:31:05;56123.84;;;-142.21;86.06
5053;BME280;2545;50.892;5.740;2023-07-29T08:33:31;56127.78;;;-142.21;85.76
5053;BME280;2545;50.892;5.740;2023-07-29T08:35:59;56151.31;;;-142.21;83.44
5053;BME280;2545;50.892;5.740;2023-07-29T08:38:25;56127.78;;;-142.21;80.96
5053;BME280;2545;50.892;5.740;2023-07-29T08:41:13;56163.06;;;-142.21;81.27
5053;BME280;2545;50.892;5.740;2023-07-29T08:43:44;56135.63;;;-142.21;78.77
5053;BME280;2545;50.892;5.740;2023-07-29T08:46:12;56149.34;;;-142.21;81.26
5053;BME280;2545;50.892;5.740;2023-07-29T08:48:41;56147.38;;;-142.21;77.24
5053;BME280;2545;50.892;5.740;2023-07-29T08:51:09;56123.84;;;-142.21;76.83
5053;BME280;2545;50.892;5.740;2023-07-29T08:53:35;56151.31;;;-142.21;77.65
5053;BME280;2545;50.892;5.740;2023-07-29T08:56:01;56163.06;;;-142.21;72.58
5053;BME280;2545;50.892;5.740;2023-07-29T08:58:27;56155.22;;;-142.21;75.49
5053;BME280;2545;50.892;5.740;2023-07-29T09:00:53;56133.66;;;-142.21;74.79
5053;BME280;2545;50.892;5.740;2023-07-29T09:03:20;56155.22;;;-142.21;77.08
5053;BME280;2545;50.892;5.740;2023-07-29T09:05:46;56131.69;;;-142.21;77.32
5053;BME280;2545;50.892;5.740;2023-07-29T09:08:11;56174.84;;;-142.21;72.79
5053;BME280;2545;50.892;5.740;2023-07-29T09:10:37;56106.22;;;-142.21;70.49
5053;BME280;2545;50.892;5.740;2023-07-29T09:13:03;56094.44;;;-142.21;71.46
5053;BME280;2545;50.892;5.740;2023-07-29T09:15:30;56151.31;;;-142.21;71.84
5053;BME280;2545;50.892;5.740;2023-07-29T09:17:57;56135.63;;;-142.21;70.58
5053;BME280;2545;50.892;5.740;2023-07-29T09:20:27;56153.28;;;-142.21;70.80
5053;BME280;2545;50.892;5.740;2023-07-29T09:22:58;56147.38;;;-142.21;70.47
5053;BME280;2545;50.892;5.740;2023-07-29T09:25:26;56098.38;;;-142.21;68.33
5053;BME280;2545;50.892;5.740;2023-07-29T09:27:52;56143.47;;;-142.21;67.89
5053;BME280;2545;50.892;5.740;2023-07-29T09:30:17;56129.75;;;-142.21;67.99
5053;BME280;2545;50.892;5.740;2023-07-29T09:32:43;56114.06;;;-142.21;70.13
5053;BME280;2545;50.892;5.740;2023-07-29T09:35:12;56080.72;;;-142.21;71.06
5053;BME280;2545;50.892;5.740;2023-07-29T09:37:39;56147.38;;;-142.21;70.27
5053;BME280;2545;50.892;5.740;2023-07-29T09:40:06;56119.94;;;-142.21;70.11
5053;BME280;2545;50.892;5.740;2023-07-29T09:42:31;56110.13;;;-142.21;67.04
5053;BME280;2545;50.892;5.740;2023-07-29T09:44:57;56092.47;;;-142.21;67.92
5053;BME280;2545;50.892;5.740;2023-07-29T09:47:23;56112.09;;;-142.21;67.79
5053;BME280;2545;50.892;5.740;2023-07-29T09:49:50;56100.31;;;-142.21;68.87
5053;BME280;2545;50.892;5.740;2023-07-29T09:52:20;56127.78;;;-142.21;66.16
5053;BME280;2545;50.892;5.740;2023-07-29T09:54:47;56086.59;;;-142.21;64.37
5053;BME280;2545;50.892;5.740;2023-07-29T09:57:17;56106.22;;;-142.21;62.35
5053;BME280;2545;50.892;5.740;2023-07-29T09:59:43;56098.38;;;-142.21;61.84
5053;BME280;2545;50.892;5.740;2023-07-29T10:02:18;56129.75;;;-142.21;63.33
5053;BME280;2545;50.892;5.740;2023-07-29T10:04:45;56084.63;;;-142.21;62.52
5053;BME280;2545;50.892;5.740;2023-07-29T10:07:11;56108.16;;;-142.21;64.96
5053;BME280;2545;50.892;5.740;2023-07-29T10:09:40;56108.16;;;-142.21;66.50
5053;BME280;2545;50.892;5.740;2023-07-29T10:12:06;56080.72;;;-142.21;68.78
5053;BME280;2545;50.892;5.740;2023-07-29T10:14:32;56106.22;;;-142.21;70.80
5053;BME280;2545;50.892;5.740;2023-07-29T10:16:58;56153.28;;;-142.21;71.30
5053;BME280;2545;50.892;5.740;2023-07-29T10:19:25;56131.69;;;-142.21;69.24
5053;BME280;2545;50.892;5.740;2023-07-29T10:21:52;56147.38;;;-142.21;70.43
5053;BME280;2545;50.892;5.740;2023-07-29T10:24:24;56143.47;;;-142.21;71.05
5053;BME280;2545;50.892;5.740;2023-07-29T10:26:57;56114.06;;;-142.21;71.21
5053;BME280;2545;50.892;5.740;2023-07-29T10:29:23;56117.97;;;-142.21;67.53
5053;BME280;2545;50.892;5.740;2023-07-29T10:31:52;56151.31;;;-142.21;65.13
5053;BME280;2545;50.892;5.740;2023-07-29T10:34:18;56119.94;;;-142.21;64.08
5053;BME280;2545;50.892;5.740;2023-07-29T10:36:45;56145.44;;;-142.21;63.63
5053;BME280;2545;50.892;5.740;2023-07-29T10:39:11;56143.47;;;-142.21;63.33
5053;BME280;2545;50.892;5.740;2023-07-29T10:41:57;56092.47;;;-142.21;65.18
5053;BME280;2545;50.892;5.740;2023-07-29T10:47:23;56078.75;;;-142.21;60.73
5053;BME280;2545;50.892;5.740;2023-07-29T10:49:51;56072.88;;;-142.21;59.43
5053;BME280;2545;50.892;5.740;2023-07-29T10:52:29;56100.31;;;-142.21;61.83
5053;BME280;2545;50.892;5.740;2023-07-29T10:54:55;56067.00;;;-142.21;63.63
5053;BME280;2545;50.892;5.740;2023-07-29T10:57:33;56088.56;;;-142.21;59.35
5053;BME280;2545;50.892;5.740;2023-07-29T10:59:59;56045.41;;;-142.21;54.01
5053;BME280;2545;50.892;5.740;2023-07-29T11:02:35;56010.13;;;-142.21;50.97
5053;BME280;2545;50.892;5.740;2023-07-29T11:05:15;56039.53;;;-142.21;47.81
5053;BME280;2545;50.892;5.740;2023-07-29T11:07:45;56004.25;;;-142.21;47.14
5053;BME280;2545;50.892;5.740;2023-07-29T11:10:11;56016.00;;;-142.21;49.36
5053;BME280;2545;50.892;5.740;2023-07-29T11:12:50;55992.47;;;-142.21;48.64
5053;BME280;2545;50.892;5.740;2023-07-29T11:15:18;55986.59;;;-142.21;49.89
5053;BME280;2545;50.892;5.740;2023-07-29T11:18:08;56041.50;;;-142.21;51.27
5053;BME280;2545;50.892;5.740;2023-07-29T11:20:33;56014.06;;;-142.21;50.87
5053;BME280;2545;50.892;5.740;2023-07-29T11:23:01;56072.88;;;-142.21;54.28
5053;BME280;2545;50.892;5.740;2023-07-29T11:25:28;56049.34;;;-142.21;50.02
5053;BME280;2545;50.892;5.740;2023-07-29T11:27:55;55967.00;;;-142.21;45.29
5053;BME280;2545;50.892;5.740;2023-07-29T11:30:21;55955.22;;;-142.21;42.88
5053;BME280;2545;50.892;5.740;2023-07-29T11:32:48;55990.53;;;-142.21;45.48
5053;BME280;2545;50.892;5.740;2023-07-29T11:35:16;56049.34;;;-142.21;50.49
5053;BME280;2545;50.892;5.740;2023-07-29T11:37:44;56100.31;;;-142.21;55.91
5053;BME280;2545;50.892;5.740;2023-07-29T11:40:13;56063.06;;;-142.21;54.75
5053;BME280;2545;50.892;5.740;2023-07-29T11:42:40;56057.19;;;-142.21;56.11
5053;BME280;2545;50.892;5.740;2023-07-29T11:45:06;56121.91;;;-142.21;56.05
5053;BME280;2545;50.892;5.740;2023-07-29T11:47:32;56068.94;;;-142.21;56.07
5053;BME280;2545;50.892;5.740;2023-07-29T11:50:06;56084.63;;;-142.21;57.60
5053;BME280;2545;50.892;5.740;2023-07-29T11:52:33;56098.38;;;-142.21;58.18
5053;BME280;2545;50.892;5.740;2023-07-29T11:55:00;56110.13;;;-142.21;59.40
5053;BME280;2545;50.892;5.740;2023-07-29T11:57:25;56119.94;;;-142.21;61.02
5053;BME280;2545;50.892;5.740;2023-07-29T11:59:52;56098.38;;;-142.21;63.21
5053;BME280;2545;50.892;5.740;2023-07-29T12:02:19;56116.00;;;-142.21;65.24
5053;BME280;2545;50.892;5.740;2023-07-29T12:04:46;56110.13;;;-142.21;67.39
5053;BME280;2545;50.892;5.740;2023-07-29T12:07:13;56125.81;;;-142.21;71.37
5053;BME280;2545;50.892;5.740;2023-07-29T12:09:40;56137.59;;;-142.21;70.65
5053;BME280;2545;50.892;5.740;2023-07-29T12:12:07;56135.63;;;-142.21;73.08
5053;BME280;2545;50.892;5.740;2023-07-29T12:14:33;56147.38;;;-142.21;71.37
5053;BME280;2545;50.892;5.740;2023-07-29T12:17:03;56131.69;;;-142.21;74.48
5053;BME280;2545;50.892;5.740;2023-07-29T12:19:37;56157.19;;;-142.21;76.19
5053;BME280;2545;50.892;5.740;2023-07-29T12:22:03;56117.97;;;-142.21;80.85
5053;BME280;2545;50.892;5.740;2023-07-29T12:24:31;56129.75;;;-142.21;82.27
5053;BME280;2545;50.892;5.740;2023-07-29T12:26:56;56145.44;;;-142.21;91.99
5053;BME280;2545;50.892;5.740;2023-07-29T12:29:22;56131.69;;;-142.21;94.71
5053;BME280;2545;50.892;5.740;2023-07-29T12:31:49;56135.63;;;-142.21;92.15
5053;BME280;2545;50.892;5.740;2023-07-29T12:34:22;56172.88;;;-142.21;92.55
5053;BME280;2545;50.892;5.740;2023-07-29T12:36:49;56161.13;;;-142.21;92.90
5053;BME280;2545;50.892;5.740;2023-07-29T12:39:19;56165.03;;;-142.21;88.98
5053;BME280;2545;50.892;5.740;2023-07-29T12:41:45;56131.69;;;-142.21;92.79
5053;BME280;2545;50.892;5.740;2023-07-29T12:44:10;56155.22;;;-142.21;99.72
5053;BME280;2545;50.892;5.740;2023-07-29T12:46:36;56174.84;;;-142.21;100.00
5053;BME280;2545;50.892;5.740;2023-07-29T12:49:01;56204.25;;;-142.21;100.00
5053;BME280;2545;50.892;5.740;2023-07-29T12:51:26;56155.22;;;-142.21;100.00
5053;BME280;2545;50.892;5.740;2023-07-29T12:53:53;56178.75;;;-142.21;100.00
5053;BME280;2545;50.892;5.740;2023-07-29T12:56:19;56178.75;;;-142.21;100.00
5053;BME280;2545;50.892;5.740;2023-07-29T12:58:44;56188.56;;;-142.21;100.00